createdAt,value
2022-11-10T00:00:54.352Z,10.69
2022-11-10T00:01:54.340Z,10.69
2022-11-10T00:02:54.333Z,10.71
2022-11-10T00:03:54.340Z,10.74
2022-11-10T00:04:54.329Z,10.72
2022-11-10T00:05:54.292Z,10.74
2022-11-10T00:06:54.327Z,10.72
2022-11-10T00:07:54.272Z,10.78
2022-11-10T00:08:54.242Z,10.76
2022-11-10T00:09:54.277Z,10.87
2022-11-10T00:10:54.236Z,10.87
2022-11-10T00:11:54.206Z,10.89
2022-11-10T00:12:54.202Z,10.84
2022-11-10T00:13:54.177Z,10.87
2022-11-10T00:14:54.201Z,10.87
2022-11-10T00:15:54.170Z,10.86
2022-11-10T00:16:54.142Z,10.82
2022-11-10T00:17:54.158Z,10.79
2022-11-10T00:18:54.132Z,10.75
2022-11-10T00:19:54.178Z,10.74
2022-11-10T00:20:54.101Z,10.67
2022-11-10T00:21:54.123Z,10.60
2022-11-10T00:22:54.112Z,10.61
2022-11-10T00:23:54.097Z,10.60
2022-11-10T00:24:54.111Z,10.57
2022-11-10T00:25:54.066Z,10.56
2022-11-10T00:26:54.041Z,10.56
2022-11-10T00:27:54.040Z,10.57
2022-11-10T00:28:54.021Z,10.61
2022-11-10T00:29:54.052Z,10.60
2022-11-10T00:30:54.013Z,10.60
2022-11-10T00:31:53.991Z,10.61
2022-11-10T00:32:53.990Z,10.63
2022-11-10T00:33:53.965Z,10.68
2022-11-10T00:34:53.996Z,10.64
2022-11-10T00:35:53.955Z,10.61
2022-11-10T00:36:53.931Z,10.59
2022-11-10T00:37:53.940Z,10.56
2022-11-10T00:38:53.901Z,10.56
2022-11-10T00:39:53.948Z,10.59
2022-11-10T00:40:53.888Z,10.56
2022-11-10T00:41:53.876Z,10.56
2022-11-10T00:42:53.870Z,10.53
2022-11-10T00:43:53.850Z,10.57
2022-11-10T00:44:53.856Z,10.59
2022-11-10T00:45:53.827Z,10.54
2022-11-10T00:46:53.827Z,10.54
2022-11-10T00:47:53.817Z,10.49
2022-11-10T00:48:53.801Z,10.46
2022-11-10T00:49:53.825Z,10.42
2022-11-10T00:50:53.770Z,10.41
2022-11-10T00:51:53.756Z,10.41
2022-11-10T00:52:53.737Z,10.41
2022-11-10T00:53:53.731Z,10.42
2022-11-10T00:54:53.766Z,10.44
2022-11-10T00:55:53.752Z,10.42
2022-11-10T00:56:53.721Z,10.41
2022-11-10T00:57:53.690Z,10.37
2022-11-10T00:58:53.680Z,10.42
2022-11-10T00:59:53.719Z,10.46
2022-11-10T01:00:53.686Z,10.46
2022-11-10T01:01:53.651Z,10.42
2022-11-10T01:02:53.648Z,10.42
2022-11-10T01:03:53.631Z,10.46
2022-11-10T01:04:53.653Z,10.41
2022-11-10T01:05:53.591Z,10.46
2022-11-10T01:06:53.660Z,10.51
2022-11-10T01:07:53.593Z,10.57
2022-11-10T01:08:53.591Z,10.53
2022-11-10T01:09:53.589Z,10.53
2022-11-10T01:10:53.547Z,10.53
2022-11-10T01:11:53.532Z,10.59
2022-11-10T01:12:53.525Z,10.60
2022-11-10T01:13:53.514Z,10.60
2022-11-10T01:14:53.527Z,10.60
2022-11-10T01:15:53.495Z,10.57
2022-11-10T01:16:53.508Z,10.67
2022-11-10T01:17:53.490Z,10.61
2022-11-10T01:18:53.455Z,10.54
2022-11-10T01:19:53.481Z,10.46
2022-11-10T01:20:53.431Z,10.41
2022-11-10T01:21:53.434Z,10.40
2022-11-10T01:22:53.408Z,10.40
2022-11-10T01:23:53.417Z,10.34
2022-11-10T01:24:53.434Z,10.31
2022-11-10T01:25:53.393Z,10.35
2022-11-10T01:26:53.374Z,10.33
2022-11-10T01:27:53.354Z,10.34
2022-11-10T01:28:53.321Z,10.33
2022-11-10T01:29:53.345Z,10.37
2022-11-10T01:30:53.305Z,10.34
2022-11-10T01:31:53.297Z,10.30
2022-11-10T01:32:53.309Z,10.20
2022-11-10T01:33:53.280Z,10.17
2022-11-10T01:34:53.305Z,10.28
2022-11-10T01:35:53.273Z,10.31
2022-11-10T01:36:53.254Z,10.25
2022-11-10T01:37:53.253Z,10.22
2022-11-10T01:38:53.236Z,10.13
2022-11-10T01:39:53.275Z,10.07
2022-11-10T01:40:53.254Z,10.05
2022-11-10T01:41:53.187Z,10.02
2022-11-10T01:42:53.192Z,9.95
2022-11-10T01:43:53.150Z,9.89
2022-11-10T01:44:53.160Z,9.89
2022-11-10T01:45:53.191Z,9.80
2022-11-10T01:46:53.155Z,9.73
2022-11-10T01:47:53.120Z,9.66
2022-11-10T01:48:53.126Z,9.66
2022-11-10T01:49:53.103Z,9.66
2022-11-10T01:50:53.127Z,9.68
2022-11-10T01:51:53.080Z,9.59
2022-11-10T01:52:53.068Z,9.44
2022-11-10T01:53:53.082Z,9.56
2022-11-10T01:54:53.079Z,9.34
2022-11-10T01:55:53.067Z,9.56
2022-11-10T01:56:53.027Z,9.46
2022-11-10T01:57:53.004Z,9.46
2022-11-10T01:58:53.016Z,9.43
2022-11-10T01:59:52.976Z,9.40
2022-11-10T02:00:53.070Z,9.56
2022-11-10T02:01:52.961Z,9.55
2022-11-10T02:02:52.971Z,9.56
2022-11-10T02:03:52.956Z,9.59
2022-11-10T02:04:52.947Z,9.56
2022-11-10T02:05:52.962Z,9.50
2022-11-10T02:06:52.959Z,9.43
2022-11-10T02:07:52.894Z,9.43
2022-11-10T02:08:52.878Z,9.44
2022-11-10T02:09:52.870Z,9.50
2022-11-10T02:10:52.905Z,9.46
2022-11-10T02:11:52.859Z,9.54
2022-11-10T02:12:52.848Z,9.46
2022-11-10T02:13:52.831Z,9.43
2022-11-10T02:14:52.819Z,9.40
2022-11-10T02:15:52.848Z,9.39
2022-11-10T02:16:52.807Z,9.47
2022-11-10T02:17:52.782Z,9.39
2022-11-10T02:18:52.797Z,9.34
2022-11-10T02:19:52.761Z,9.29
2022-11-10T02:20:52.778Z,9.31
2022-11-10T02:21:52.744Z,9.25
2022-11-10T02:22:52.719Z,9.19
2022-11-10T02:23:52.705Z,9.13
2022-11-10T02:24:52.713Z,9.04
2022-11-10T02:25:52.735Z,9.03
2022-11-10T02:26:52.685Z,9.13
2022-11-10T02:27:52.659Z,9.06
2022-11-10T02:28:52.672Z,9.06
2022-11-10T02:29:52.644Z,9.06
2022-11-10T02:30:52.663Z,8.99
2022-11-10T02:31:52.633Z,8.97
2022-11-10T02:32:52.620Z,9.06
2022-11-10T02:33:52.602Z,9.06
2022-11-10T02:34:52.584Z,8.97
2022-11-10T02:35:52.605Z,8.92
2022-11-10T02:36:52.581Z,8.89
2022-11-10T02:37:52.561Z,8.91
2022-11-10T02:38:52.553Z,8.87
2022-11-10T02:39:52.561Z,8.79
2022-11-10T02:40:52.553Z,8.76
2022-11-10T02:41:52.502Z,8.70
2022-11-10T02:42:52.514Z,8.64
2022-11-10T02:43:52.482Z,8.66
2022-11-10T02:44:52.477Z,8.61
2022-11-10T02:45:52.498Z,8.61
2022-11-10T02:46:52.442Z,8.58
2022-11-10T02:47:52.453Z,8.64
2022-11-10T02:48:52.429Z,8.63
2022-11-10T02:49:52.431Z,8.60
2022-11-10T02:50:52.464Z,8.67
2022-11-10T02:51:52.419Z,8.67
2022-11-10T02:52:52.392Z,8.63
2022-11-10T02:53:52.381Z,8.63
2022-11-10T02:54:52.385Z,8.58
2022-11-10T02:55:52.404Z,8.51
2022-11-10T02:56:52.387Z,8.51
2022-11-10T02:57:52.323Z,8.56
2022-11-10T02:58:52.330Z,8.51
2022-11-10T02:59:52.308Z,8.48
2022-11-10T03:00:52.367Z,8.44
2022-11-10T03:01:52.329Z,8.61
2022-11-10T03:02:52.310Z,8.67
2022-11-10T03:03:52.254Z,8.67
2022-11-10T03:04:52.273Z,8.60
2022-11-10T03:05:52.243Z,8.64
2022-11-10T03:06:52.293Z,8.51
2022-11-10T03:07:52.249Z,8.66
2022-11-10T03:08:52.207Z,8.60
2022-11-10T03:09:52.208Z,-40.00
2022-11-10T03:10:52.205Z,-40.00
2022-11-10T03:11:52.218Z,-40.00
2022-11-10T03:12:52.174Z,8.00
2022-11-10T03:14:01.401Z,8.00
2022-11-10T03:14:53.152Z,8.01
2022-11-10T03:15:52.144Z,-40.00
2022-11-10T03:16:52.155Z,7.77
2022-11-10T03:17:52.106Z,7.80
2022-11-10T03:18:52.121Z,-39.36
2022-11-10T03:19:52.090Z,-39.36
2022-11-10T03:20:52.091Z,-40.00
2022-11-10T03:21:52.105Z,8.10
2022-11-10T03:22:52.047Z,-38.71
2022-11-10T03:23:52.040Z,8.18
2022-11-10T03:24:52.031Z,-40.00
2022-11-10T03:25:52.055Z,8.12
2022-11-10T03:26:52.056Z,8.01
2022-11-10T03:27:52.012Z,8.01
2022-11-10T03:28:51.989Z,8.05
2022-11-10T03:29:51.987Z,-39.96
2022-11-10T03:30:51.967Z,8.18
2022-11-10T03:31:51.996Z,8.15
2022-11-10T03:32:51.959Z,8.12
2022-11-10T03:33:51.941Z,-39.96
2022-11-10T03:34:51.946Z,-40.00
2022-11-10T03:35:51.906Z,8.38
2022-11-10T03:36:51.927Z,8.48
2022-11-10T03:37:51.896Z,8.42
2022-11-10T03:38:51.885Z,8.52
2022-11-10T03:39:51.870Z,8.46
2022-11-10T03:41:17.682Z,8.53
2022-11-10T03:41:52.884Z,8.49
2022-11-10T03:42:51.839Z,8.52
2022-11-10T03:43:51.823Z,8.56
2022-11-10T03:44:51.813Z,8.56
2022-11-10T03:45:51.803Z,8.63
2022-11-10T03:46:52.044Z,8.53
2022-11-10T03:47:51.795Z,8.44
2022-11-10T03:48:53.692Z,8.42
2022-11-10T03:49:51.768Z,8.30
2022-11-10T03:50:51.750Z,8.24
2022-11-10T03:51:51.756Z,8.18
2022-11-10T03:52:51.737Z,8.27
2022-11-10T03:53:51.724Z,8.30
2022-11-10T03:54:51.719Z,8.34
2022-11-10T03:55:51.694Z,8.34
2022-11-10T03:56:51.715Z,8.33
2022-11-10T03:57:51.675Z,8.24
2022-11-10T03:58:51.665Z,8.37
2022-11-10T03:59:51.641Z,8.36
2022-11-10T04:00:51.620Z,8.34
2022-11-10T04:01:51.694Z,8.24
2022-11-10T04:02:51.602Z,8.31
2022-11-10T04:03:51.885Z,8.38
2022-11-10T04:04:51.591Z,8.38
2022-11-10T04:05:51.591Z,8.36
2022-11-10T04:06:51.649Z,8.31
2022-11-10T04:07:51.555Z,8.26
2022-11-10T04:08:51.552Z,8.15
2022-11-10T04:09:51.560Z,8.10
2022-11-10T04:10:51.535Z,8.01
2022-11-10T04:11:51.581Z,8.08
2022-11-10T04:12:51.516Z,8.06
2022-11-10T04:13:51.484Z,8.05
2022-11-10T04:14:51.498Z,8.18
2022-11-10T04:15:51.470Z,8.19
2022-11-10T04:16:51.550Z,8.23
2022-11-10T04:17:51.443Z,8.20
2022-11-10T04:18:51.444Z,8.16
2022-11-10T04:19:51.417Z,8.19
2022-11-10T04:20:51.412Z,8.20
2022-11-10T04:21:51.448Z,8.20
2022-11-10T04:22:51.392Z,8.19
2022-11-10T04:23:51.382Z,8.18
2022-11-10T04:24:51.379Z,8.13
2022-11-10T04:25:51.365Z,8.03
2022-11-10T04:26:51.359Z,8.19
2022-11-10T04:27:51.376Z,8.16
2022-11-10T04:28:51.326Z,8.12
2022-11-10T04:29:51.314Z,8.13
2022-11-10T04:30:51.309Z,8.13
2022-11-10T04:31:51.293Z,8.10
2022-11-10T04:32:51.313Z,8.23
2022-11-10T04:33:51.272Z,8.23
2022-11-10T04:34:51.277Z,8.23
2022-11-10T04:35:51.247Z,8.31
2022-11-10T04:36:51.231Z,8.27
2022-11-10T04:37:51.242Z,8.33
2022-11-10T04:38:51.203Z,8.30
2022-11-10T04:39:51.177Z,8.28
2022-11-10T04:40:51.188Z,8.27
2022-11-10T04:41:51.163Z,8.28
2022-11-10T04:42:51.218Z,8.27
2022-11-10T04:43:51.150Z,8.23
2022-11-10T04:44:51.138Z,8.28
2022-11-10T04:45:51.125Z,8.23
2022-11-10T04:46:51.127Z,8.19
2022-11-10T04:47:51.147Z,8.13
2022-11-10T04:48:51.112Z,8.15
2022-11-10T04:49:51.122Z,8.20
2022-11-10T04:50:51.095Z,8.16
2022-11-10T04:51:51.092Z,8.15
2022-11-10T04:52:51.099Z,8.08
2022-11-10T04:53:51.053Z,7.98
2022-11-10T04:54:51.029Z,7.98
2022-11-10T04:55:51.028Z,7.95
2022-11-10T04:56:51.029Z,8.01
2022-11-10T04:57:51.020Z,8.16
2022-11-10T04:58:50.986Z,8.30
2022-11-10T04:59:50.986Z,8.34
2022-11-10T05:00:51.069Z,8.27
2022-11-10T05:01:50.965Z,8.20
2022-11-10T05:02:50.996Z,8.18
2022-11-10T05:03:50.944Z,8.15
2022-11-10T05:04:50.933Z,8.19
2022-11-10T05:05:50.915Z,8.27
2022-11-10T05:06:50.965Z,8.26
2022-11-10T05:07:50.932Z,8.20
2022-11-10T05:08:50.898Z,8.26
2022-11-10T05:09:50.869Z,8.26
2022-11-10T05:10:50.882Z,8.23
2022-11-10T05:11:50.847Z,8.18
2022-11-10T05:12:50.974Z,8.18
2022-11-10T05:13:50.827Z,8.24
2022-11-10T05:14:50.813Z,8.24
2022-11-10T05:15:50.792Z,8.24
2022-11-10T05:16:50.782Z,8.28
2022-11-10T05:17:50.765Z,8.27
2022-11-10T05:18:50.790Z,8.30
2022-11-10T05:19:50.782Z,8.31
2022-11-10T05:20:50.766Z,8.34
2022-11-10T05:21:50.751Z,8.36
2022-11-10T05:22:50.764Z,8.33
2022-11-10T05:23:50.711Z,8.33
2022-11-10T05:24:50.712Z,8.33
2022-11-10T05:25:50.690Z,8.36
2022-11-10T05:26:50.701Z,8.41
2022-11-10T05:27:50.713Z,8.38
2022-11-10T05:28:50.685Z,8.45
2022-11-10T05:29:50.644Z,8.48
2022-11-10T05:30:50.656Z,8.53
2022-11-10T05:31:51.765Z,8.60
2022-11-10T05:32:50.678Z,8.55
2022-11-10T05:33:50.607Z,8.58
2022-11-10T05:34:50.631Z,8.58
2022-11-10T05:35:50.604Z,8.60
2022-11-10T05:36:50.580Z,8.58
2022-11-10T05:37:50.559Z,8.53
2022-11-10T05:38:50.583Z,8.66
2022-11-10T05:39:50.527Z,8.69
2022-11-10T05:40:50.524Z,8.67
2022-11-10T05:41:50.531Z,8.69
2022-11-10T05:42:50.505Z,8.92
2022-11-10T05:43:50.551Z,8.88
2022-11-10T05:44:50.501Z,8.66
2022-11-10T05:45:50.474Z,8.89
2022-11-10T05:46:50.472Z,8.88
2022-11-10T05:47:50.461Z,8.64
2022-11-10T05:48:50.478Z,8.82
2022-11-10T05:49:50.445Z,8.81
2022-11-10T05:50:50.412Z,8.61
2022-11-10T05:51:50.419Z,8.85
2022-11-10T05:52:50.590Z,8.89
2022-11-10T05:53:50.396Z,8.95
2022-11-10T05:54:50.354Z,8.91
2022-11-10T05:55:50.347Z,8.88
2022-11-10T05:56:50.358Z,8.85
2022-11-10T05:57:50.348Z,8.87
2022-11-10T05:58:50.365Z,8.89
2022-11-10T05:59:50.329Z,8.85
2022-11-10T06:00:50.305Z,8.84
2022-11-10T06:01:50.288Z,8.78
2022-11-10T06:02:50.261Z,8.46
2022-11-10T06:03:50.396Z,8.58
2022-11-10T06:04:50.270Z,8.48
2022-11-10T06:05:50.272Z,8.45
2022-11-10T06:06:50.290Z,8.46
2022-11-10T06:07:50.242Z,8.71
2022-11-10T06:08:50.232Z,8.69
2022-11-10T06:09:50.228Z,8.70
2022-11-10T06:10:50.196Z,8.69
2022-11-10T06:11:50.179Z,8.48
2022-11-10T06:12:50.177Z,8.70
2022-11-10T06:13:50.196Z,8.74
2022-11-10T06:14:50.155Z,8.74
2022-11-10T06:15:50.720Z,8.73
2022-11-10T06:16:50.160Z,8.70
2022-11-10T06:17:50.106Z,8.70
2022-11-10T06:18:50.132Z,8.52
2022-11-10T06:19:50.102Z,8.74
2022-11-10T06:20:50.095Z,8.73
2022-11-10T06:21:51.968Z,8.60
2022-11-10T06:22:51.068Z,8.85
2022-11-10T06:23:50.076Z,8.81
2022-11-10T06:24:50.029Z,8.81
2022-11-10T06:25:50.034Z,8.84
2022-11-10T06:26:50.023Z,8.85
2022-11-10T06:27:49.997Z,8.82
2022-11-10T06:28:50.010Z,8.78
2022-11-10T06:29:49.958Z,8.76
2022-11-10T06:30:49.934Z,8.76
2022-11-10T06:31:49.942Z,8.78
2022-11-10T06:32:49.917Z,8.81
2022-11-10T06:33:49.951Z,8.66
2022-11-10T06:34:49.916Z,8.87
2022-11-10T06:35:49.914Z,8.89
2022-11-10T06:36:49.896Z,8.95
2022-11-10T06:37:49.912Z,8.88
2022-11-10T06:38:49.900Z,8.81
2022-11-10T06:39:49.856Z,9.10
2022-11-10T06:40:49.847Z,9.11
2022-11-10T06:41:49.829Z,9.14
2022-11-10T06:42:49.828Z,9.22
2022-11-10T06:43:49.860Z,9.22
2022-11-10T06:44:49.787Z,9.23
2022-11-10T06:45:49.802Z,9.03
2022-11-10T06:46:49.767Z,9.32
2022-11-10T06:47:49.779Z,9.34
2022-11-10T06:48:49.745Z,9.13
2022-11-10T06:49:49.790Z,9.16
2022-11-10T06:50:49.737Z,9.31
2022-11-10T06:51:49.722Z,9.31
2022-11-10T06:52:49.745Z,9.55
2022-11-10T06:53:49.701Z,9.36
2022-11-10T06:54:49.713Z,9.59
2022-11-10T06:55:49.681Z,9.39
2022-11-10T06:56:49.661Z,9.65
2022-11-10T06:57:49.655Z,9.69
2022-11-10T06:58:49.659Z,9.72
2022-11-10T06:59:49.651Z,9.72
2022-11-10T07:00:49.683Z,9.72
2022-11-10T07:01:49.608Z,9.65
2022-11-10T07:02:49.606Z,9.65
2022-11-10T07:04:17.716Z,9.66
2022-11-10T07:04:50.572Z,9.69
2022-11-10T07:05:49.578Z,9.69
2022-11-10T07:06:49.578Z,9.66
2022-11-10T07:07:49.529Z,9.69
2022-11-10T07:08:49.666Z,9.73
2022-11-10T07:09:49.521Z,9.76
2022-11-10T07:10:49.504Z,9.77
2022-11-10T07:11:49.506Z,9.79
2022-11-10T07:12:49.486Z,9.82
2022-11-10T07:13:49.547Z,9.86
2022-11-10T07:14:49.476Z,9.84
2022-11-10T07:15:49.453Z,9.87
2022-11-10T07:16:49.427Z,9.91
2022-11-10T07:17:49.436Z,9.95
2022-11-10T07:18:49.459Z,9.97
2022-11-10T07:19:49.420Z,9.72
2022-11-10T07:20:49.390Z,9.95
2022-11-10T07:21:49.372Z,9.95
2022-11-10T07:22:49.359Z,10.05
2022-11-10T07:23:49.354Z,10.56
2022-11-10T07:24:49.368Z,11.32
2022-11-10T07:25:49.346Z,11.91
2022-11-10T07:26:49.340Z,12.42
2022-11-10T07:27:49.315Z,12.22
2022-11-10T07:28:49.308Z,12.35
2022-11-10T07:29:49.333Z,12.87
2022-11-10T07:30:49.297Z,13.35
2022-11-10T07:31:49.265Z,13.38
2022-11-10T07:32:49.244Z,13.56
2022-11-10T07:33:54.245Z,14.04
2022-11-10T07:34:50.281Z,14.51
2022-11-10T07:35:49.227Z,14.55
2022-11-10T07:36:49.208Z,14.78
2022-11-10T07:37:49.228Z,15.17
2022-11-10T07:38:49.222Z,15.43
2022-11-10T07:39:49.215Z,15.68
2022-11-10T07:40:49.169Z,15.76
2022-11-10T07:41:52.387Z,14.97
2022-11-10T07:42:49.143Z,14.11
2022-11-10T07:43:49.119Z,13.59
2022-11-10T07:44:49.137Z,13.81
2022-11-10T07:45:49.106Z,14.47
2022-11-10T07:46:49.108Z,14.43
2022-11-10T07:47:49.079Z,13.70
2022-11-10T07:48:49.074Z,13.28
2022-11-10T07:49:49.098Z,13.28
2022-11-10T07:50:49.056Z,14.26
2022-11-10T07:51:49.057Z,14.29
2022-11-10T07:52:49.024Z,13.60
2022-11-10T07:53:49.033Z,13.05
2022-11-10T07:54:49.029Z,12.72
2022-11-10T07:55:49.008Z,12.35
2022-11-10T07:56:48.987Z,12.10
2022-11-10T07:57:48.974Z,11.88
2022-11-10T07:58:48.970Z,11.78
2022-11-10T07:59:51.727Z,11.70
2022-11-10T08:00:48.950Z,11.60
2022-11-10T08:01:48.994Z,11.59
2022-11-10T08:02:48.913Z,11.86
2022-11-10T08:03:48.921Z,12.29
2022-11-10T08:04:48.939Z,12.91
2022-11-10T08:05:48.898Z,13.92
2022-11-10T08:06:48.930Z,14.04
2022-11-10T08:07:48.942Z,13.47
2022-11-10T08:08:48.876Z,13.16
2022-11-10T08:09:48.865Z,12.94
2022-11-10T08:10:48.825Z,12.76
2022-11-10T08:11:48.825Z,12.55
2022-11-10T08:12:48.853Z,12.42
2022-11-10T08:13:48.793Z,12.24
2022-11-10T08:14:48.824Z,12.15
2022-11-10T08:15:48.781Z,12.02
2022-11-10T08:16:48.783Z,12.00
2022-11-10T08:17:48.761Z,11.99
2022-11-10T08:18:48.767Z,12.00
2022-11-10T08:19:48.752Z,11.95
2022-11-10T08:20:48.700Z,11.90
2022-11-10T08:21:48.709Z,11.87
2022-11-10T08:22:48.680Z,11.84
2022-11-10T08:23:48.690Z,11.83
2022-11-10T08:24:48.699Z,11.83
2022-11-10T08:25:48.664Z,11.68
2022-11-10T08:26:48.659Z,11.55
2022-11-10T08:27:48.654Z,11.75
2022-11-10T08:28:48.635Z,11.75
2022-11-10T08:29:48.652Z,11.68
2022-11-10T08:30:48.619Z,11.70
2022-11-10T08:31:48.592Z,11.62
2022-11-10T08:32:48.579Z,12.29
2022-11-10T08:33:48.566Z,13.05
2022-11-10T08:34:48.590Z,13.27
2022-11-10T08:35:48.572Z,13.97
2022-11-10T08:36:48.534Z,14.41
2022-11-10T08:37:48.538Z,14.45
2022-11-10T08:38:48.525Z,14.69
2022-11-10T08:39:48.541Z,14.97
2022-11-10T08:40:48.487Z,15.06
2022-11-10T08:41:48.493Z,15.14
2022-11-10T08:42:48.482Z,15.06
2022-11-10T08:43:48.467Z,15.07
2022-11-10T08:44:48.485Z,15.14
2022-11-10T08:45:48.431Z,15.00
2022-11-10T08:46:48.442Z,14.96
2022-11-10T08:47:48.418Z,14.86
2022-11-10T08:48:48.410Z,15.14
2022-11-10T08:49:48.421Z,15.33
2022-11-10T08:50:48.371Z,15.25
2022-11-10T08:51:48.378Z,14.77
2022-11-10T08:52:48.339Z,14.47
2022-11-10T08:53:48.357Z,14.40
2022-11-10T08:54:48.390Z,14.48
2022-11-10T08:55:48.333Z,14.40
2022-11-10T08:56:48.307Z,14.25
2022-11-10T08:57:48.303Z,13.95
2022-11-10T08:58:53.122Z,14.20
2022-11-10T08:59:49.326Z,14.18
2022-11-10T09:00:48.250Z,14.26
2022-11-10T09:01:48.236Z,14.35
2022-11-10T09:02:48.277Z,14.32
2022-11-10T09:03:48.256Z,14.43
2022-11-10T09:04:48.265Z,14.55
2022-11-10T09:05:49.025Z,14.54
2022-11-10T09:06:48.226Z,14.45
2022-11-10T09:07:48.197Z,14.47
2022-11-10T09:08:48.164Z,14.44
2022-11-10T09:10:05.886Z,14.60
2022-11-10T09:10:49.183Z,14.73
2022-11-10T09:11:48.128Z,14.85
2022-11-10T09:12:48.136Z,14.81
2022-11-10T09:13:48.127Z,14.85
2022-11-10T09:14:48.103Z,14.96
2022-11-10T09:15:48.144Z,15.09
2022-11-10T09:16:48.102Z,15.18
2022-11-10T09:17:48.080Z,15.28
2022-11-10T09:18:48.046Z,15.40
2022-11-10T09:19:48.112Z,15.31
2022-11-10T09:20:48.081Z,15.44
2022-11-10T09:21:48.041Z,15.61
2022-11-10T09:22:48.004Z,15.61
2022-11-10T09:23:48.019Z,15.65
2022-11-10T09:24:47.997Z,15.55
2022-11-10T09:25:48.019Z,15.40
2022-11-10T09:26:47.957Z,15.40
2022-11-10T09:27:47.966Z,15.42
2022-11-10T09:28:47.952Z,15.37
2022-11-10T09:29:47.951Z,15.47
2022-11-10T09:30:47.967Z,15.65
2022-11-10T09:31:47.915Z,15.55
2022-11-10T09:32:47.920Z,15.31
2022-11-10T09:33:47.972Z,15.17
2022-11-10T09:34:51.889Z,15.09
2022-11-10T09:35:48.896Z,15.15
2022-11-10T09:36:47.846Z,15.40
2022-11-10T09:37:47.965Z,15.58
2022-11-10T09:38:47.834Z,15.51
2022-11-10T09:39:47.816Z,15.51
2022-11-10T09:40:47.828Z,15.40
2022-11-10T09:41:47.793Z,15.44
2022-11-10T09:42:47.799Z,15.67
2022-11-10T09:43:47.783Z,15.72
2022-11-10T09:44:47.773Z,15.80
2022-11-10T09:45:47.785Z,15.70
2022-11-10T09:46:47.749Z,15.73
2022-11-10T09:47:57.431Z,15.98
2022-11-10T09:48:48.714Z,16.09
2022-11-10T09:49:47.722Z,16.13
2022-11-10T09:50:47.767Z,16.43
2022-11-10T09:51:48.536Z,16.50
2022-11-10T09:52:47.672Z,16.31
2022-11-10T09:53:47.671Z,16.00
2022-11-10T09:54:47.651Z,15.79
2022-11-10T09:55:47.660Z,15.62
2022-11-10T09:56:47.618Z,15.70
2022-11-10T09:57:49.006Z,15.70
2022-11-10T09:58:47.640Z,15.83
2022-11-10T09:59:47.592Z,15.88
2022-11-10T10:00:47.615Z,16.04
2022-11-10T10:01:47.628Z,16.10
2022-11-10T10:02:47.553Z,16.20
2022-11-10T10:03:47.573Z,15.84
2022-11-10T10:04:51.923Z,15.64
2022-11-10T10:05:47.575Z,15.39
2022-11-10T10:07:09.616Z,15.14
2022-11-10T10:07:48.611Z,14.97
2022-11-10T10:08:47.504Z,15.02
2022-11-10T10:09:47.491Z,15.10
2022-11-10T10:10:47.536Z,15.04
2022-11-10T10:11:47.448Z,15.02
2022-11-10T10:12:47.447Z,15.11
2022-11-10T10:13:47.444Z,15.24
2022-11-10T10:14:47.438Z,15.44
2022-11-10T10:15:47.447Z,15.73
2022-11-10T10:16:47.437Z,15.98
2022-11-10T10:17:47.399Z,16.09
2022-11-10T10:18:47.402Z,16.24
2022-11-10T10:19:47.364Z,16.36
2022-11-10T10:20:47.404Z,16.54
2022-11-10T10:21:47.348Z,16.69
2022-11-10T10:22:47.343Z,16.78
2022-11-10T10:24:08.406Z,16.91
2022-11-10T10:24:48.313Z,16.75
2022-11-10T10:25:47.339Z,16.38
2022-11-10T10:26:47.325Z,16.24
2022-11-10T10:27:47.280Z,16.23
2022-11-10T10:28:47.285Z,16.56
2022-11-10T10:29:47.247Z,16.89
2022-11-10T10:30:47.293Z,17.14
2022-11-10T10:31:47.236Z,17.64
2022-11-10T10:32:47.214Z,17.56
2022-11-10T10:33:47.217Z,17.74
2022-11-10T10:34:47.209Z,17.97
2022-11-10T10:35:47.214Z,17.95
2022-11-10T10:36:47.181Z,17.76
2022-11-10T10:37:47.177Z,17.94
2022-11-10T10:38:47.152Z,18.05
2022-11-10T10:39:47.141Z,18.04
2022-11-10T10:40:47.179Z,16.91
2022-11-10T10:41:47.117Z,16.93
2022-11-10T10:42:47.141Z,16.96
2022-11-10T10:43:47.090Z,17.49
2022-11-10T10:44:47.096Z,17.02
2022-11-10T10:45:47.196Z,16.81
2022-11-10T10:46:47.084Z,16.53
2022-11-10T10:47:47.044Z,15.91
2022-11-10T10:48:50.501Z,15.80
2022-11-10T10:49:47.013Z,15.76
2022-11-10T10:50:47.035Z,15.97
2022-11-10T10:51:47.009Z,16.16
2022-11-10T10:52:47.002Z,15.92
2022-11-10T10:53:47.006Z,15.95
2022-11-10T10:54:46.973Z,15.77
2022-11-10T10:55:46.996Z,15.55
2022-11-10T10:56:46.965Z,15.27
2022-11-10T10:57:46.936Z,15.33
2022-11-10T10:58:46.949Z,15.03
2022-11-10T10:59:46.929Z,15.17
2022-11-10T11:00:46.945Z,15.10
2022-11-10T11:01:46.942Z,15.17
2022-11-10T11:02:46.905Z,15.00
2022-11-10T11:03:46.868Z,14.77
2022-11-10T11:04:46.861Z,14.77
2022-11-10T11:05:46.853Z,14.97
2022-11-10T11:06:46.973Z,15.19
2022-11-10T11:07:46.829Z,15.65
2022-11-10T11:08:46.813Z,16.28
2022-11-10T11:09:46.833Z,16.47
2022-11-10T11:10:46.797Z,16.51
2022-11-10T11:11:46.842Z,16.66
2022-11-10T11:12:46.791Z,17.39
2022-11-10T11:13:46.761Z,17.39
2022-11-10T11:14:46.767Z,17.49
2022-11-10T11:15:46.727Z,16.99
2022-11-10T11:16:46.766Z,16.66
2022-11-10T11:17:46.727Z,16.32
2022-11-10T11:18:46.686Z,16.13
2022-11-10T11:19:46.709Z,15.90
2022-11-10T11:20:46.680Z,15.70
2022-11-10T11:21:46.685Z,15.52
2022-11-10T11:22:46.665Z,15.61
2022-11-10T11:23:47.648Z,15.58
2022-11-10T11:24:46.631Z,15.72
2022-11-10T11:25:46.604Z,15.77
2022-11-10T11:26:46.625Z,15.82
2022-11-10T11:27:46.575Z,15.75
2022-11-10T11:28:46.570Z,15.68
2022-11-10T11:29:46.570Z,15.64
2022-11-10T11:30:46.578Z,15.52
2022-11-10T11:31:46.609Z,15.31
2022-11-10T11:32:46.559Z,15.28
2022-11-10T11:33:46.536Z,15.39
2022-11-10T11:34:46.551Z,15.75
2022-11-10T11:35:46.511Z,15.47
2022-11-10T11:36:46.496Z,15.67
2022-11-10T11:37:46.518Z,15.54
2022-11-10T11:38:46.474Z,15.61
2022-11-10T11:39:46.481Z,15.67
2022-11-10T11:40:46.443Z,15.77
2022-11-10T11:41:46.452Z,15.75
2022-11-10T11:42:46.467Z,15.75
2022-11-10T11:43:46.413Z,15.62
2022-11-10T11:44:46.413Z,15.49
2022-11-10T11:45:46.394Z,15.82
2022-11-10T11:46:49.282Z,15.90
2022-11-10T11:47:46.422Z,15.98
2022-11-10T11:48:46.372Z,15.84
2022-11-10T11:49:46.369Z,16.01
2022-11-10T11:50:46.355Z,17.48
2022-11-10T11:51:46.308Z,18.53
2022-11-10T11:52:46.374Z,18.33
2022-11-10T11:53:46.304Z,17.71
2022-11-10T11:54:46.299Z,17.23
2022-11-10T11:55:46.312Z,16.79
2022-11-10T11:56:46.351Z,17.44
2022-11-10T11:57:46.280Z,18.45
2022-11-10T11:58:46.248Z,19.67
2022-11-10T11:59:46.242Z,19.26
2022-11-10T12:00:46.233Z,18.59
2022-11-10T12:01:46.217Z,18.55
2022-11-10T12:02:50.178Z,18.19
2022-11-10T12:03:47.194Z,17.97
2022-11-10T12:04:46.184Z,17.67
2022-11-10T12:05:46.168Z,17.36
2022-11-10T12:06:46.201Z,17.05
2022-11-10T12:07:46.172Z,16.78
2022-11-10T12:08:46.129Z,16.60
2022-11-10T12:09:46.131Z,17.71
2022-11-10T12:10:46.113Z,18.40
2022-11-10T12:11:46.101Z,19.14
2022-11-10T12:12:46.120Z,19.34
2022-11-10T12:13:46.085Z,19.15
2022-11-10T12:14:46.078Z,19.52
2022-11-10T12:15:46.045Z,19.76
2022-11-10T12:16:46.070Z,20.02
2022-11-10T12:17:46.085Z,20.29
2022-11-10T12:18:49.689Z,20.37
2022-11-10T12:19:46.033Z,20.44
2022-11-10T12:20:45.990Z,20.43
2022-11-10T12:21:45.989Z,20.34
2022-11-10T12:22:46.019Z,20.50
2022-11-10T12:23:45.978Z,20.60
2022-11-10T12:24:45.948Z,20.75
2022-11-10T12:25:45.942Z,20.80
2022-11-10T12:26:45.928Z,20.85
2022-11-10T12:27:45.966Z,19.67
2022-11-10T12:28:45.915Z,18.92
2022-11-10T12:29:45.885Z,18.04
2022-11-10T12:30:45.905Z,17.90
2022-11-10T12:31:45.869Z,17.60
2022-11-10T12:32:45.912Z,18.11
2022-11-10T12:33:45.839Z,18.43
2022-11-10T12:34:45.868Z,17.90
2022-11-10T12:35:45.835Z,18.13
2022-11-10T12:36:45.865Z,18.73
2022-11-10T12:37:45.828Z,19.27
2022-11-10T12:38:45.782Z,19.47
2022-11-10T12:39:45.777Z,18.71
2022-11-10T12:40:45.761Z,18.04
2022-11-10T12:41:45.743Z,17.51
2022-11-10T12:42:45.794Z,17.44
2022-11-10T12:43:45.723Z,17.71
2022-11-10T12:44:45.739Z,18.07
2022-11-10T12:45:45.712Z,17.80
2022-11-10T12:46:50.938Z,18.05
2022-11-10T12:47:46.735Z,17.48
2022-11-10T12:48:45.692Z,17.20
2022-11-10T12:49:45.684Z,17.31
2022-11-10T12:50:45.657Z,17.76
2022-11-10T12:51:45.655Z,17.76
2022-11-10T12:52:45.685Z,17.24
2022-11-10T12:53:45.633Z,16.75
2022-11-10T12:54:45.604Z,16.38
2022-11-10T12:55:45.606Z,16.09
2022-11-10T12:56:45.600Z,16.12
2022-11-10T12:57:45.659Z,16.54
2022-11-10T12:58:45.574Z,16.94
2022-11-10T12:59:45.548Z,17.12
2022-11-10T13:00:45.553Z,16.84
2022-11-10T13:01:45.590Z,16.87
2022-11-10T13:02:45.560Z,17.38